Time;durP1;ratioP1;P1;durP2;ratioP2;P2;SDS_P1;SDS_P2;PMS_P1;PMS_P2;Temp;Humidity;BMP_temperature;BMP_pressure;BME280_temperature;BME280_humidity;BME280_pressure;Samples;Min_cycle;Max_cycle;Signal;HPM_P1;HPM_P2
2024/01/23 00:01:19;;;;;;;20.38;15.02;;;21.20;47.70;;;;;;5078322;28;20127;-67
2024/01/23 00:03:44;;;;;;;19.23;14.07;;;21.20;47.80;;;;;;5069785;28;20111;-67
2024/01/23 00:06:10;;;;;;;19.17;14.43;;;21.20;47.80;;;;;;5080926;28;20048;-67
2024/01/23 00:08:35;;;;;;;19.38;14.50;;;21.10;47.80;;;;;;5080716;28;20040;-67
2024/01/23 00:11:01;;;;;;;19.15;14.40;;;21.10;47.80;;;;;;5078138;28;20040;-67
2024/01/23 00:13:27;;;;;;;18.55;14.18;;;21.10;48.30;;;;;;5078358;28;20104;-67
2024/01/23 00:15:53;;;;;;;18.33;13.77;;;21.10;47.80;;;;;;5075614;28;20016;-67
2024/01/23 00:18:18;;;;;;;18.17;13.32;;;21.00;47.80;;;;;;5080109;28;20077;-67
2024/01/23 00:20:46;;;;;;;18.88;13.65;;;21.10;47.80;;;;;;5077356;28;20020;-67
2024/01/23 00:23:12;;;;;;;15.65;13.07;;;21.10;47.90;;;;;;5079192;28;20035;-65
2024/01/23 00:25:38;;;;;;;18.58;13.27;;;21.00;47.80;;;;;;5079830;28;20777;-66
2024/01/23 00:28:05;;;;;;;16.50;12.73;;;21.00;47.90;;;;;;5078609;28;20115;-66
2024/01/23 00:30:31;;;;;;;16.80;12.90;;;20.90;47.80;;;;;;5078434;28;20503;-65
2024/01/23 00:32:59;;;;;;;15.93;12.23;;;21.00;47.90;;;;;;5078887;28;20099;-65
2024/01/23 00:35:24;;;;;;;16.50;12.18;;;20.90;47.90;;;;;;5079754;28;20444;-66
2024/01/23 00:37:50;;;;;;;16.85;12.80;;;20.90;47.90;;;;;;5079047;28;20050;-65
2024/01/23 00:40:15;;;;;;;16.23;12.10;;;20.90;47.90;;;;;;5079256;28;20047;-65
2024/01/23 00:42:41;;;;;;;15.45;11.73;;;20.90;47.90;;;;;;5078672;28;20503;-66
2024/01/23 00:45:08;;;;;;;13.93;11.07;;;20.80;47.80;;;;;;5079083;28;20031;-65
2024/01/23 00:47:33;;;;;;;16.70;12.25;;;20.90;47.90;;;;;;5059909;28;20514;-65
2024/01/23 00:49:59;;;;;;;14.43;11.07;;;20.90;48.00;;;;;;5069619;28;20064;-65
2024/01/23 00:52:25;;;;;;;16.25;11.40;;;20.90;47.90;;;;;;5068527;28;20063;-64
2024/01/23 00:54:50;;;;;;;13.55;10.65;;;20.80;47.90;;;;;;5078843;28;20107;-66
2024/01/23 00:57:16;;;;;;;13.07;10.38;;;20.80;47.90;;;;;;5077622;28;20033;-65
2024/01/23 00:59:41;;;;;;;16.00;11.77;;;20.80;48.00;;;;;;5083075;28;20024;-64
2024/01/23 01:02:07;;;;;;;14.65;10.85;;;20.80;48.00;;;;;;5080228;28;20468;-66
2024/01/23 01:04:33;;;;;;;15.20;10.60;;;20.80;48.00;;;;;;5072479;28;20021;-66
2024/01/23 01:06:59;;;;;;;14.23;10.65;;;20.80;48.00;;;;;;5082151;28;20488;-65
2024/01/23 01:09:28;;;;;;;13.40;10.68;;;20.70;48.00;;;;;;5072895;28;20107;-65
2024/01/23 01:11:53;;;;;;;13.27;9.73;;;20.70;48.00;;;;;;5085094;28;20028;-65
2024/01/23 01:14:19;;;;;;;13.70;10.05;;;20.70;48.00;;;;;;5082389;28;20124;-65
2024/01/23 01:16:45;;;;;;;13.52;10.13;;;20.70;48.00;;;;;;5080731;28;20509;-65
2024/01/23 01:19:10;;;;;;;13.77;10.23;;;20.70;48.10;;;;;;5080836;28;20016;-65
2024/01/23 01:21:36;;;;;;;13.95;10.45;;;20.70;48.10;;;;;;5082122;28;20028;-65
2024/01/23 01:24:03;;;;;;;13.43;9.77;;;20.70;48.10;;;;;;5080638;28;20107;-66
2024/01/23 01:26:28;;;;;;;12.27;10.05;;;20.70;48.10;;;;;;5082733;28;20161;-65
2024/01/23 01:28:54;;;;;;;12.25;9.10;;;20.70;48.10;;;;;;5083493;28;20131;-65
2024/01/23 01:31:19;;;;;;;12.23;8.77;;;20.70;48.10;;;;;;5082126;28;20024;-66
2024/01/23 01:33:45;;;;;;;12.15;9.75;;;20.70;48.10;;;;;;5083235;28;20237;-65
2024/01/23 01:36:10;;;;;;;11.77;8.80;;;20.60;48.00;;;;;;5079740;28;20031;-65
2024/01/23 01:38:36;;;;;;;13.43;9.35;;;20.60;48.00;;;;;;5080646;28;20024;-66
2024/01/23 01:41:03;;;;;;;10.65;8.38;;;20.60;48.10;;;;;;5080269;28;20028;-67
2024/01/23 01:43:31;;;;;;;11.63;8.85;;;20.60;48.10;;;;;;5081910;28;20036;-66
2024/01/23 01:46:15;;;;;;;12.03;9.17;;;20.60;48.10;;;;;;5080676;28;20021;-67
2024/01/23 01:48:42;;;;;;;11.68;9.10;;;20.60;48.20;;;;;;5081741;28;20028;-66
2024/01/23 01:51:08;;;;;;;11.90;8.40;;;20.50;48.10;;;;;;5082606;28;20073;-66
2024/01/23 01:53:34;;;;;;;11.13;8.40;;;20.50;48.20;;;;;;5081216;28;20032;-66
2024/01/23 01:56:02;;;;;;;12.57;8.93;;;20.50;48.20;;;;;;5063205;28;20031;-65
2024/01/23 01:58:30;;;;;;;12.82;9.20;;;20.50;48.20;;;;;;5081394;28;20385;-65
2024/01/23 02:00:57;;;;;;;10.77;8.05;;;20.50;48.20;;;;;;5080884;28;20050;-65
2024/01/23 02:03:23;;;;;;;10.93;8.13;;;20.50;48.20;;;;;;5080831;28;20051;-66
2024/01/23 02:05:50;;;;;;;11.18;8.30;;;20.50;48.20;;;;;;5081466;28;20024;-66
2024/01/23 02:08:17;;;;;;;11.43;8.20;;;20.50;48.20;;;;;;5082637;28;20539;-66
2024/01/23 02:10:43;;;;;;;11.27;8.05;;;20.50;48.20;;;;;;5078428;28;20028;-67
2024/01/23 02:13:09;;;;;;;10.65;7.95;;;20.50;48.20;;;;;;5080230;28;20024;-65
2024/01/23 02:15:35;;;;;;;10.77;8.18;;;20.40;48.20;;;;;;5082571;28;20154;-66
2024/01/23 02:18:01;;;;;;;11.25;7.88;;;20.40;48.20;;;;;;5081386;28;20028;-65
2024/01/23 02:20:27;;;;;;;10.35;7.50;;;20.40;48.30;;;;;;5082006;28;20104;-65
2024/01/23 02:22:53;;;;;;;11.45;8.32;;;20.40;48.20;;;;;;5078391;28;20051;-66
2024/01/23 02:25:19;;;;;;;10.32;7.55;;;20.40;48.30;;;;;;5071182;28;20032;-66
2024/01/23 02:27:44;;;;;;;10.50;7.50;;;20.40;48.30;;;;;;5078658;28;20031;-66
2024/01/23 02:30:11;;;;;;;9.98;7.22;;;20.40;48.30;;;;;;5071856;28;20094;-64
2024/01/23 02:32:36;;;;;;;9.13;7.32;;;20.40;48.30;;;;;;5080941;28;20039;-63
2024/01/23 02:35:02;;;;;;;9.80;7.07;;;20.40;48.30;;;;;;5081666;28;20025;-63
2024/01/23 02:37:28;;;;;;;9.90;7.55;;;20.30;48.30;;;;;;5080899;28;20089;-63
2024/01/23 02:39:53;;;;;;;10.35;7.72;;;20.30;48.30;;;;;;5081416;28;20025;-63
2024/01/23 02:42:19;;;;;;;9.13;7.32;;;20.30;48.40;;;;;;5081579;28;20060;-64
2024/01/23 02:44:48;;;;;;;8.77;6.82;;;20.30;48.40;;;;;;5080769;28;20020;-64
2024/01/23 02:47:13;;;;;;;9.47;7.27;;;20.30;48.40;;;;;;5079923;28;20086;-64
2024/01/23 02:49:39;;;;;;;9.55;7.18;;;20.30;48.40;;;;;;5070874;28;20262;-64
2024/01/23 02:52:05;;;;;;;9.05;7.05;;;20.30;48.40;;;;;;5081730;28;20438;-64
2024/01/23 02:54:34;;;;;;;9.32;6.90;;;20.20;48.40;;;;;;5079635;28;20063;-64
2024/01/23 02:56:59;;;;;;;7.65;6.35;;;20.30;48.40;;;;;;5079829;28;20119;-64
2024/01/23 02:59:25;;;;;;;9.23;6.43;;;20.20;48.40;;;;;;5079842;28;20116;-64
2024/01/23 03:01:51;;;;;;;9.60;6.95;;;20.30;48.50;;;;;;5075858;28;20032;-64
2024/01/23 03:04:17;;;;;;;8.30;6.55;;;20.20;48.40;;;;;;5080738;28;20028;-63
2024/01/23 03:06:42;;;;;;;8.98;6.38;;;20.20;48.40;;;;;;5079301;28;20533;-64
2024/01/23 03:09:10;;;;;;;8.85;6.47;;;20.20;48.50;;;;;;5079213;28;20086;-63
2024/01/23 03:11:37;;;;;;;8.55;6.43;;;20.20;48.50;;;;;;5059393;28;20024;-64
2024/01/23 03:14:03;;;;;;;9.32;6.60;;;20.20;48.50;;;;;;5081835;28;20103;-64
2024/01/23 03:16:29;;;;;;;8.15;6.28;;;20.20;48.50;;;;;;5076721;28;20050;-64
2024/01/23 03:18:54;;;;;;;9.13;6.30;;;20.20;48.50;;;;;;5076990;28;20028;-64
2024/01/23 03:21:20;;;;;;;7.30;5.82;;;20.20;48.50;;;;;;5077990;28;20118;-63
2024/01/23 03:23:46;;;;;;;7.78;6.05;;;20.20;48.50;;;;;;5080601;28;20120;-64
2024/01/23 03:26:11;;;;;;;7.78;5.72;;;20.20;48.50;;;;;;5077995;28;20550;-64
2024/01/23 03:28:37;;;;;;;8.10;6.22;;;20.20;48.60;;;;;;5080089;28;20047;-63
2024/01/23 03:31:03;;;;;;;7.63;5.85;;;20.10;48.50;;;;;;5080236;28;20059;-64
2024/01/23 03:33:29;;;;;;;7.95;6.00;;;20.10;48.50;;;;;;5078380;28;20069;-63
2024/01/23 03:35:55;;;;;;;7.47;5.55;;;20.10;48.50;;;;;;5061833;28;20560;-63
2024/01/23 03:38:21;;;;;;;7.78;5.63;;;20.10;48.60;;;;;;5082811;28;20099;-63
2024/01/23 03:40:46;;;;;;;8.50;6.18;;;20.10;48.60;;;;;;5079534;28;20507;-63
2024/01/23 03:43:12;;;;;;;7.75;5.63;;;20.10;48.60;;;;;;5079664;28;20032;-63
2024/01/23 03:45:38;;;;;;;7.68;5.75;;;20.00;48.60;;;;;;5079655;28;20162;-63
2024/01/23 03:48:04;;;;;;;7.40;5.32;;;20.10;48.60;;;;;;5076444;28;20077;-63
2024/01/23 03:50:30;;;;;;;7.88;5.82;;;20.10;48.70;;;;;;5079194;28;20035;-63
2024/01/23 03:52:56;;;;;;;7.28;5.43;;;20.10;48.60;;;;;;5079905;28;20388;-64
2024/01/23 03:55:22;;;;;;;7.63;5.53;;;20.10;48.70;;;;;;5094136;28;20027;-63
2024/01/23 03:57:47;;;;;;;6.85;5.40;;;20.00;48.60;;;;;;5078204;28;20456;-63
2024/01/23 04:00:14;;;;;;;7.13;5.55;;;20.00;48.60;;;;;;5077777;28;20131;-64
2024/01/23 04:02:40;;;;;;;6.95;5.25;;;20.00;48.60;;;;;;5079322;28;20107;-64
2024/01/23 04:05:07;;;;;;;7.15;5.28;;;20.00;48.60;;;;;;5079002;28;20071;-66
2024/01/23 04:07:33;;;;;;;8.13;5.68;;;20.00;48.70;;;;;;5079635;28;20441;-66
2024/01/23 04:09:59;;;;;;;7.15;5.28;;;20.00;48.70;;;;;;5069284;28;20063;-66
2024/01/23 04:12:26;;;;;;;7.63;5.38;;;20.00;48.70;;;;;;5079129;28;20603;-67
2024/01/23 04:14:51;;;;;;;6.38;4.90;;;20.00;48.70;;;;;;5075607;28;20039;-67
2024/01/23 04:17:17;;;;;;;7.35;5.28;;;20.00;48.80;;;;;;5076794;28;20031;-67
2024/01/23 04:19:43;;;;;;;6.95;5.20;;;20.00;48.80;;;;;;5079470;28;20031;-67
2024/01/23 04:22:09;;;;;;;6.95;4.97;;;20.00;48.80;;;;;;5079789;28;20058;-67
2024/01/23 04:24:38;;;;;;;8.55;5.70;;;20.00;48.80;;;;;;5077152;28;20417;-67
2024/01/23 04:27:04;;;;;;;6.82;5.10;;;20.00;48.80;;;;;;5080452;28;20028;-67
2024/01/23 04:29:30;;;;;;;6.65;5.07;;;19.90;48.80;;;;;;5080369;28;20503;-67
2024/01/23 04:31:55;;;;;;;6.97;5.00;;;19.90;48.80;;;;;;5094257;28;20028;-67
2024/01/23 04:34:21;;;;;;;7.22;4.95;;;19.90;48.80;;;;;;5078020;28;20499;-67
2024/01/23 04:36:48;;;;;;;6.68;4.85;;;19.90;48.80;;;;;;5077846;28;20024;-67
2024/01/23 04:39:14;;;;;;;7.25;5.50;;;19.90;48.80;;;;;;5078226;28;20125;-67
2024/01/23 04:41:40;;;;;;;7.72;5.35;;;19.90;48.80;;;;;;5079690;28;20042;-67
2024/01/23 04:44:06;;;;;;;7.65;5.15;;;19.90;48.80;;;;;;5078776;28;20036;-67
2024/01/23 04:46:31;;;;;;;6.72;5.18;;;19.90;48.80;;;;;;5077851;28;20032;-66
2024/01/23 04:48:57;;;;;;;6.45;4.95;;;19.90;48.80;;;;;;5078360;28;20456;-65
2024/01/23 04:51:22;;;;;;;6.60;5.10;;;19.90;48.90;;;;;;5080384;28;20033;-66
2024/01/23 04:53:52;;;;;;;7.55;5.00;;;19.90;48.90;;;;;;5078331;28;20042;-65
2024/01/23 04:56:18;;;;;;;7.03;4.88;;;19.90;48.90;;;;;;5079771;28;20024;-66
2024/01/23 04:58:43;;;;;;;7.07;5.28;;;19.90;48.90;;;;;;5077938;28;20055;-66
2024/01/23 05:01:09;;;;;;;7.57;5.00;;;19.90;48.90;;;;;;5076571;28;20472;-67
2024/01/23 05:03:35;;;;;;;6.80;4.93;;;19.90;48.90;;;;;;5077812;28;20028;-67
2024/01/23 05:06:00;;;;;;;6.32;4.80;;;19.90;48.90;;;;;;5076278;28;20490;-68
2024/01/23 05:08:26;;;;;;;7.15;5.10;;;19.90;49.00;;;;;;5078626;28;20032;-67
2024/01/23 05:10:51;;;;;;;7.68;5.57;;;19.80;48.90;;;;;;5061824;28;20039;-67
2024/01/23 05:13:17;;;;;;;6.88;4.93;;;19.80;48.90;;;;;;5078444;28;20224;-66
2024/01/23 05:15:42;;;;;;;6.30;4.93;;;19.80;48.90;;;;;;5077470;28;20028;-66
2024/01/23 05:18:08;;;;;;;7.53;5.65;;;19.80;48.90;;;;;;5066942;28;20028;-67
2024/01/23 05:20:34;;;;;;;6.53;4.80;;;19.80;49.00;;;;;;5077851;28;20062;-66
2024/01/23 05:23:01;;;;;;;6.75;4.90;;;19.80;49.00;;;;;;5079882;28;20039;-66
2024/01/23 05:25:27;;;;;;;6.28;4.53;;;19.80;49.00;;;;;;5079430;28;20492;-66
2024/01/23 05:27:53;;;;;;;6.15;4.57;;;19.80;49.00;;;;;;5077864;28;20097;-66
2024/01/23 05:30:19;;;;;;;6.45;4.63;;;19.80;49.00;;;;;;5079256;28;20448;-66
2024/01/23 05:32:44;;;;;;;6.50;4.72;;;19.80;49.10;;;;;;5077042;28;20030;-65
2024/01/23 05:35:10;;;;;;;5.40;4.32;;;19.80;49.10;;;;;;5077970;28;20487;-66
2024/01/23 05:37:36;;;;;;;6.63;4.55;;;19.80;49.10;;;;;;5077925;28;20516;-65
2024/01/23 05:40:05;;;;;;;6.13;4.10;;;19.80;49.10;;;;;;5077904;28;20584;-65
2024/01/23 05:42:31;;;;;;;;;;;19.80;49.10;;;;;;5079130;28;20494;-65
2024/01/23 05:44:56;;;;;;;6.05;4.68;;;19.80;49.10;;;;;;5080628;28;19913;-65
2024/01/23 05:47:22;;;;;;;5.93;4.47;;;19.80;49.20;;;;;;5079667;28;20047;-65
2024/01/23 05:49:48;;;;;;;6.18;4.18;;;19.80;49.20;;;;;;5080370;28;20035;-65
2024/01/23 05:52:15;;;;;;;6.65;4.55;;;19.70;49.10;;;;;;5079928;28;20543;-64
2024/01/23 05:54:41;;;;;;;5.80;4.13;;;19.70;49.20;;;;;;5080465;28;20103;-66
2024/01/23 05:57:08;;;;;;;4.72;3.70;;;19.80;49.30;;;;;;5077970;28;20369;-66
2024/01/23 05:59:34;;;;;;;4.93;3.60;;;19.80;49.30;;;;;;5077740;28;20431;-66
2024/01/23 06:02:00;;;;;;;4.95;3.90;;;19.80;49.30;;;;;;5084271;28;20040;-65
2024/01/23 06:04:25;;;;;;;5.53;3.70;;;19.70;49.30;;;;;;5077563;28;20108;-65
2024/01/23 06:06:52;;;;;;;5.63;3.72;;;19.80;49.40;;;;;;5081195;28;20125;-65
2024/01/23 06:09:17;;;;;;;5.97;3.63;;;19.70;49.30;;;;;;5080487;28;20032;-65
2024/01/23 06:11:43;;;;;;;5.43;3.70;;;19.80;49.30;;;;;;5070818;28;20039;-65
2024/01/23 06:14:08;;;;;;;5.53;3.80;;;19.80;49.40;;;;;;5077172;28;20031;-66
2024/01/23 06:16:34;;;;;;;5.35;3.50;;;19.80;49.40;;;;;;5081248;28;20044;-65
2024/01/23 06:19:00;;;;;;;5.30;3.78;;;19.70;49.30;;;;;;5078990;28;20108;-65
2024/01/23 06:21:25;;;;;;;6.03;3.90;;;19.80;49.40;;;;;;5081063;28;20099;-65
2024/01/23 06:23:51;;;;;;;4.78;3.67;;;19.70;49.30;;;;;;5080653;28;20500;-65
2024/01/23 06:26:17;;;;;;;5.30;3.40;;;19.80;49.40;;;;;;5078875;28;20095;-65
2024/01/23 06:28:45;;;;;;;5.55;3.65;;;19.80;49.40;;;;;;5082390;28;20518;-63
2024/01/23 06:31:11;;;;;;;5.30;3.30;;;19.70;49.60;;;;;;5081272;28;20043;-62
2024/01/23 06:33:37;;;;;;;5.28;3.70;;;19.70;49.50;;;;;;5080217;28;20111;-64
2024/01/23 06:36:03;;;;;;;5.10;3.95;;;19.70;49.50;;;;;;5098892;28;20028;-64
2024/01/23 06:38:29;;;;;;;5.13;3.60;;;19.70;49.50;;;;;;5081685;28;20171;-64
2024/01/23 06:40:55;;;;;;;4.68;3.45;;;19.70;49.50;;;;;;5079843;28;20492;-64
2024/01/23 06:43:21;;;;;;;4.65;3.30;;;19.70;49.50;;;;;;5078811;28;20024;-64
2024/01/23 06:45:46;;;;;;;5.50;3.70;;;19.70;49.50;;;;;;5081493;28;20047;-64
2024/01/23 06:48:12;;;;;;;4.60;3.35;;;19.70;49.50;;;;;;5080381;28;20039;-64
2024/01/23 06:50:38;;;;;;;4.70;3.58;;;19.70;49.50;;;;;;5062041;28;20188;-64
2024/01/23 06:53:03;;;;;;;5.60;3.35;;;19.70;49.50;;;;;;5082539;28;20146;-64
2024/01/23 06:55:29;;;;;;;4.90;3.60;;;19.70;49.50;;;;;;5080730;28;20024;-64
2024/01/23 06:57:54;;;;;;;5.15;3.30;;;19.70;49.50;;;;;;5079168;28;20070;-64
2024/01/23 07:00:20;;;;;;;5.85;3.63;;;19.70;49.50;;;;;;5080067;28;20103;-64
2024/01/23 07:02:46;;;;;;;5.32;3.10;;;19.70;49.50;;;;;;5079078;28;20100;-64
2024/01/23 07:05:12;;;;;;;4.15;2.90;;;19.70;49.50;;;;;;5079944;28;20020;-64
2024/01/23 07:07:37;;;;;;;4.70;3.33;;;19.70;49.50;;;;;;5079888;28;20450;-64
2024/01/23 07:10:04;;;;;;;5.93;3.10;;;19.70;49.50;;;;;;5079878;28;20595;-64
2024/01/23 07:12:30;;;;;;;4.43;3.10;;;19.70;49.50;;;;;;5081359;28;20056;-63
2024/01/23 07:14:56;;;;;;;4.78;3.42;;;19.70;49.50;;;;;;5070359;28;20028;-63
2024/01/23 07:17:21;;;;;;;3.85;2.85;;;19.70;49.50;;;;;;5081503;28;20524;-63
2024/01/23 07:19:47;;;;;;;4.45;3.13;;;19.70;49.50;;;;;;5077704;28;20048;-63
2024/01/23 07:22:13;;;;;;;3.78;2.83;;;19.70;49.50;;;;;;5079684;28;20046;-63
2024/01/23 07:24:39;;;;;;;4.53;3.33;;;19.70;49.50;;;;;;5082265;28;20042;-63
2024/01/23 07:27:05;;;;;;;4.93;2.90;;;19.70;49.50;;;;;;5078533;28;20037;-63
2024/01/23 07:29:31;;;;;;;4.00;2.72;;;19.70;49.50;;;;;;5079987;28;20032;-63
2024/01/23 07:31:57;;;;;;;5.00;3.13;;;19.70;49.50;;;;;;5079815;28;20495;-64
2024/01/23 07:34:22;;;;;;;4.88;3.00;;;19.70;49.50;;;;;;5080695;28;20016;-63
2024/01/23 07:36:48;;;;;;;4.78;3.20;;;19.70;50.00;;;;;;5081674;28;20451;-63
2024/01/23 07:39:14;;;;;;;5.07;3.17;;;19.70;49.50;;;;;;5079796;28;20048;-64
2024/01/23 07:41:42;;;;;;;4.55;2.88;;;19.70;49.50;;;;;;5079254;28;20032;-63
2024/01/23 07:44:08;;;;;;;4.00;2.90;;;19.70;49.50;;;;;;5081736;28;20032;-63
2024/01/23 07:46:33;;;;;;;4.93;3.05;;;19.70;49.50;;;;;;5080084;28;20476;-63
2024/01/23 07:48:59;;;;;;;5.18;3.33;;;19.70;49.50;;;;;;5078605;28;20039;-62
2024/01/23 07:51:25;;;;;;;4.38;2.70;;;19.70;49.50;;;;;;5078463;28;20035;-64
2024/01/23 07:53:50;;;;;;;4.40;3.00;;;19.70;49.50;;;;;;5079765;28;20028;-63
2024/01/23 07:56:16;;;;;;;4.68;2.97;;;19.70;49.50;;;;;;5078446;28;20408;-63
2024/01/23 07:58:42;;;;;;;4.10;2.83;;;19.70;49.50;;;;;;5078126;28;20058;-63
2024/01/23 08:01:07;;;;;;;5.00;3.05;;;19.70;49.50;;;;;;5078825;28;20017;-62
2024/01/23 08:03:33;;;;;;;4.78;3.00;;;19.70;49.50;;;;;;5060580;28;20028;-63
2024/01/23 08:05:59;;;;;;;4.18;3.05;;;19.70;49.50;;;;;;5059249;28;20094;-64
2024/01/23 08:08:24;;;;;;;4.05;2.78;;;19.70;49.50;;;;;;5077814;28;20404;-63
2024/01/23 08:10:51;;;;;;;3.88;2.90;;;19.70;49.50;;;;;;5079359;28;20404;-63
2024/01/23 08:13:20;;;;;;;4.15;2.67;;;19.70;49.50;;;;;;5079875;28;20098;-63
2024/01/23 08:15:47;;;;;;;5.80;2.67;;;19.70;49.50;;;;;;5078708;28;20471;-63
2024/01/23 08:18:13;;;;;;;4.07;2.88;;;19.70;49.50;;;;;;5080545;28;20050;-63
2024/01/23 08:20:39;;;;;;;4.20;2.40;;;19.70;49.50;;;;;;5077636;28;20059;-64
2024/01/23 08:23:05;;;;;;;3.90;2.58;;;19.70;49.50;;;;;;5079479;28;20059;-62
2024/01/23 08:25:31;;;;;;;4.18;2.80;;;19.70;49.50;;;;;;5078233;28;20032;-62
2024/01/23 08:27:56;;;;;;;3.75;2.60;;;19.70;49.50;;;;;;5092694;28;20028;-62
2024/01/23 08:30:22;;;;;;;4.95;2.80;;;19.60;49.50;;;;;;5077947;28;20100;-62
2024/01/23 08:32:47;;;;;;;3.75;2.60;;;19.70;49.50;;;;;;5077843;28;20071;-62
2024/01/23 08:35:15;;;;;;;3.97;2.80;;;19.70;49.50;;;;;;5078649;28;20021;-62
2024/01/23 08:37:40;;;;;;;3.47;2.55;;;19.70;49.50;;;;;;5076809;28;20515;-63
2024/01/23 08:40:07;;;;;;;3.78;2.67;;;19.60;49.40;;;;;;5078434;28;20032;-62
2024/01/23 08:42:33;;;;;;;4.30;2.88;;;19.60;49.40;;;;;;5079141;28;20100;-63
2024/01/23 08:44:59;;;;;;;4.63;3.25;;;19.70;49.50;;;;;;5077928;28;20589;-62
2024/01/23 08:47:24;;;;;;;4.80;2.78;;;19.60;49.40;;;;;;5079150;28;20021;-63
2024/01/23 08:49:50;;;;;;;5.15;2.85;;;19.70;49.50;;;;;;5075883;28;20384;-62
2024/01/23 08:52:16;;;;;;;3.65;2.58;;;19.70;49.40;;;;;;5075389;28;20040;-63
2024/01/23 08:54:42;;;;;;;4.28;2.90;;;19.60;49.40;;;;;;5076753;28;20372;-63
2024/01/23 08:57:09;;;;;;;4.10;2.85;;;19.60;49.40;;;;;;5078380;28;20039;-64
2024/01/23 08:59:37;;;;;;;3.72;2.60;;;19.70;49.40;;;;;;5078140;28;20473;-63
2024/01/23 09:02:04;;;;;;;3.85;2.60;;;19.60;49.40;;;;;;5076832;28;20065;-62
2024/01/23 09:04:29;;;;;;;4.35;2.70;;;19.60;49.30;;;;;;5076948;28;20475;-63
2024/01/23 09:06:55;;;;;;;3.83;2.30;;;19.70;49.40;;;;;;5078688;28;20039;-63
2024/01/23 09:09:21;;;;;;;4.32;2.80;;;19.60;49.90;;;;;;5078912;28;20430;-63
2024/01/23 09:11:46;;;;;;;3.60;2.40;;;19.60;49.30;;;;;;5077431;28;20033;-62
2024/01/23 09:14:12;;;;;;;4.60;2.63;;;19.60;49.30;;;;;;5075169;28;20029;-62
2024/01/23 09:16:38;;;;;;;3.92;2.50;;;19.60;49.30;;;;;;5079724;28;20392;-62
2024/01/23 09:19:04;;;;;;;3.90;2.55;;;19.60;49.30;;;;;;5077394;28;20035;-63
2024/01/23 09:21:29;;;;;;;3.97;2.50;;;19.60;49.30;;;;;;5081737;28;20028;-62
2024/01/23 09:23:55;;;;;;;4.20;2.60;;;19.60;49.40;;;;;;5080516;28;20478;-62
2024/01/23 09:26:21;;;;;;;3.30;2.20;;;19.60;49.30;;;;;;5082018;28;20089;-63
2024/01/23 09:28:46;;;;;;;4.20;2.80;;;19.60;49.30;;;;;;5081629;28;20072;-62
2024/01/23 09:31:12;;;;;;;3.70;2.80;;;19.60;49.40;;;;;;5081580;28;20024;-62
2024/01/23 09:33:37;;;;;;;4.38;2.42;;;19.60;49.30;;;;;;5080121;28;20028;-62
2024/01/23 09:36:03;;;;;;;3.50;2.30;;;19.60;49.30;;;;;;5078894;28;20020;-63
2024/01/23 09:38:29;;;;;;;4.43;2.40;;;19.60;49.30;;;;;;5095121;28;20077;-62
2024/01/23 09:40:54;;;;;;;4.10;2.30;;;19.60;49.30;;;;;;5082955;28;20052;-63
2024/01/23 09:43:21;;;;;;;4.07;2.80;;;19.60;49.30;;;;;;5081137;28;20108;-62
2024/01/23 09:45:47;;;;;;;3.72;2.13;;;19.60;49.30;;;;;;5079923;28;20119;-63
2024/01/23 09:48:15;;;;;;;3.58;2.50;;;19.60;49.30;;;;;;5063718;28;20024;-63
2024/01/23 09:50:42;;;;;;;3.70;2.50;;;19.60;49.30;;;;;;5080053;28;20039;-62
2024/01/23 09:53:09;;;;;;;3.92;2.60;;;19.60;49.30;;;;;;5084105;28;20020;-63
2024/01/23 09:55:35;;;;;;;3.97;2.42;;;19.60;49.30;;;;;;5081642;28;20032;-63
2024/01/23 09:58:03;;;;;;;3.80;2.38;;;19.60;49.30;;;;;;5083817;28;20543;-63
2024/01/23 10:00:29;;;;;;;3.20;2.15;;;19.60;49.30;;;;;;5080131;28;20050;-63
2024/01/23 10:02:55;;;;;;;3.70;2.58;;;19.60;49.30;;;;;;5079491;28;20025;-64
2024/01/23 10:05:22;;;;;;;3.78;2.55;;;19.60;49.30;;;;;;5078472;28;20074;-64
2024/01/23 10:07:48;;;;;;;3.75;2.30;;;19.60;49.30;;;;;;5079947;28;20043;-63
2024/01/23 10:10:16;;;;;;;3.85;2.38;;;19.60;49.30;;;;;;5081586;28;20025;-63
2024/01/23 10:12:46;;;;;;;4.22;2.33;;;19.60;49.30;;;;;;5082977;28;20434;-64
2024/01/23 10:15:16;;;;;;;3.88;2.60;;;19.60;49.30;;;;;;5082010;28;20063;-63
2024/01/23 10:17:43;;;;;;;3.30;2.33;;;19.60;49.30;;;;;;5081275;28;20023;-63
2024/01/23 10:20:09;;;;;;;3.38;2.00;;;19.50;49.30;;;;;;5079072;28;20476;-63
2024/01/23 10:22:36;;;;;;;3.05;2.00;;;19.50;49.20;;;;;;5079228;28;20546;-63
2024/01/23 10:25:03;;;;;;;3.30;2.08;;;19.50;49.20;;;;;;5082443;28;20484;-63
2024/01/23 10:27:32;;;;;;;3.60;2.20;;;19.50;49.20;;;;;;5080751;28;20032;-63
2024/01/23 10:29:58;;;;;;;4.07;2.38;;;19.50;49.30;;;;;;5080458;28;20496;-63
2024/01/23 10:32:24;;;;;;;3.50;2.30;;;19.50;49.20;;;;;;5081883;28;20032;-63
2024/01/23 10:34:54;;;;;;;3.47;2.30;;;19.60;49.30;;;;;;5079641;28;20024;-63
2024/01/23 10:37:23;;;;;;;3.40;2.10;;;19.50;49.20;;;;;;5079208;28;20073;-62
2024/01/23 10:39:51;;;;;;;3.90;2.38;;;19.50;48.80;;;;;;5081572;28;20077;-63
2024/01/23 10:42:19;;;;;;;3.00;2.00;;;19.50;49.20;;;;;;5081795;28;20032;-63
2024/01/23 10:44:47;;;;;;;3.63;2.40;;;19.50;49.30;;;;;;5079250;28;20161;-63
2024/01/23 10:47:14;;;;;;;3.35;2.10;;;19.50;49.20;;;;;;5081228;28;20031;-63
2024/01/23 10:49:40;;;;;;;2.72;1.73;;;19.50;49.20;;;;;;5077922;28;20033;-63
2024/01/23 10:52:11;;;;;;;2.78;1.80;;;19.50;49.30;;;;;;5077597;28;20557;-63
2024/01/23 10:54:43;;;;;;;3.40;2.10;;;19.50;49.30;;;;;;5082154;28;20077;-64
2024/01/23 10:57:15;;;;;;;3.50;2.20;;;19.50;49.20;;;;;;5083040;28;20059;-64
2024/01/23 10:59:45;;;;;;;2.83;1.90;;;19.50;49.20;;;;;;5078609;28;20429;-63
2024/01/23 11:02:29;;;;;;;3.00;1.80;;;19.50;49.20;;;;;;5081518;28;20044;-63
2024/01/23 11:04:55;;;;;;;2.80;1.92;;;19.50;49.30;;;;;;5080583;28;20032;-63
2024/01/23 11:07:28;;;;;;;3.05;2.08;;;19.50;49.30;;;;;;5078510;28;20033;-63
2024/01/23 11:10:33;;;;;;;3.38;2.05;;;19.50;49.30;;;;;;5078640;28;20024;-63
2024/01/23 11:13:38;;;;;;;2.83;1.92;;;19.50;49.30;;;;;;5078327;28;20395;-63
2024/01/23 11:16:08;;;;;;;3.40;2.00;;;19.50;49.20;;;;;;5078400;28;20599;-63
2024/01/23 11:18:34;;;;;;;2.50;1.70;;;19.50;49.30;;;;;;5079981;28;20418;-63
2024/01/23 11:21:05;;;;;;;2.47;1.63;;;19.50;49.30;;;;;;5078402;28;20043;-64
2024/01/23 11:23:39;;;;;;;3.17;2.00;;;19.50;49.30;;;;;;5079513;28;20084;-63
2024/01/23 11:26:31;;;;;;;2.63;1.70;;;19.50;49.40;;;;;;5079222;28;20051;-64
2024/01/23 11:29:04;;;;;;;3.55;2.20;;;19.40;49.30;;;;;;5078537;28;20053;-63
2024/01/23 11:31:37;;;;;;;3.08;1.90;;;19.50;49.30;;;;;;5078188;28;20020;-64
2024/01/23 11:34:21;;;;;;;3.90;2.00;;;19.40;49.30;;;;;;5070415;28;20035;-62
2024/01/23 11:36:47;;;;;;;2.72;1.80;;;19.50;49.30;;;;;;5078442;28;20032;-63
2024/01/23 11:39:15;;;;;;;2.92;1.73;;;19.50;49.40;;;;;;5078340;28;20023;-63
2024/01/23 11:41:52;;;;;;;3.05;2.03;;;19.50;49.90;;;;;;5080309;28;20027;-63
2024/01/23 11:44:19;;;;;;;2.83;2.00;;;19.50;49.40;;;;;;5080159;28;20056;-63
2024/01/23 11:46:49;;;;;;;2.92;1.80;;;19.50;49.40;;;;;;5079244;28;20051;-62
2024/01/23 11:49:15;;;;;;;2.78;1.80;;;19.50;49.40;;;;;;5061144;28;20389;-63
2024/01/23 11:51:42;;;;;;;2.90;1.95;;;19.50;49.40;;;;;;5080014;28;20839;-62
2024/01/23 11:54:10;;;;;;;3.35;2.00;;;19.50;49.40;;;;;;5076916;28;20592;-63
2024/01/23 11:56:36;;;;;;;2.75;1.67;;;19.40;49.40;;;;;;5078970;28;20157;-62
2024/01/23 11:59:02;;;;;;;3.25;1.75;;;19.40;49.40;;;;;;5080861;28;20384;-62
2024/01/23 12:01:30;;;;;;;3.20;1.98;;;19.40;49.40;;;;;;5078437;28;20033;-63
2024/01/23 12:03:56;;;;;;;4.03;1.90;;;19.40;49.40;;;;;;5069418;28;20031;-62
2024/01/23 12:06:23;;;;;;;2.72;1.77;;;19.40;49.40;;;;;;5076894;28;20516;-65
2024/01/23 12:08:49;;;;;;;2.80;1.65;;;19.40;49.40;;;;;;5079132;28;20036;-64
2024/01/23 12:11:16;;;;;;;2.50;1.50;;;19.40;49.40;;;;;;5078236;28;20058;-65
2024/01/23 12:13:49;;;;;;;2.88;1.90;;;19.40;49.40;;;;;;5078226;28;20032;-64
2024/01/23 12:16:17;;;;;;;2.53;1.88;;;19.40;49.40;;;;;;5076201;28;20024;-64
2024/01/23 12:18:44;;;;;;;3.15;1.80;;;19.40;49.40;;;;;;5080443;28;20026;-65
2024/01/23 12:21:11;;;;;;;3.65;2.00;;;19.40;49.40;;;;;;5067868;28;20036;-65
2024/01/23 12:23:37;;;;;;;2.90;1.83;;;19.50;49.50;;;;;;5076561;28;20044;-67
2024/01/23 12:26:04;;;;;;;2.75;1.75;;;19.40;49.40;;;;;;5080248;28;20044;-66
2024/01/23 12:28:31;;;;;;;2.83;1.70;;;19.40;49.40;;;;;;5078920;28;20043;-67
2024/01/23 12:30:57;;;;;;;2.17;1.52;;;19.40;49.60;;;;;;5077882;28;20032;-68
2024/01/23 12:33:25;;;;;;;3.53;1.55;;;19.40;49.80;;;;;;5077172;28;20388;-67
2024/01/23 12:35:51;;;;;;;2.80;1.50;;;19.40;50.00;;;;;;5079538;28;20592;-67
2024/01/23 12:38:18;;;;;;;2.72;1.60;;;19.50;50.40;;;;;;5077349;28;20043;-67
2024/01/23 12:40:44;;;;;;;2.40;1.45;;;19.40;50.20;;;;;;5079086;28;20458;-67